Startpagina
METAR-TAF:

METAR-TAF

Vliegvelden :

Harbin, China

breedte: 45-45N, lengte: 126-46E, hoogte: 143 m

Actueel weer

Dit bericht is 24 minuten geleden gemaakt, om 13:00 UTC
Wind 6 kt uit het westzuidwesten
Temperatuur 14°C
Vochtigheid 94%
Druk 1006 hPa
Zicht: 7000 m

METAR: ZYHB 191300Z 25003MPS 7000 NSC 14/13 Q1006 NOSIG

Tijdstip: 21:24 (13:24 UTC)

Verwachting

Dit bericht is 4 uur en het 14 minuten geleden gemaakt, om 09:10 UTC
Verwachting geldig van 19 om 12 UTC tot 20 om 12 UTC
Wind 6 kt uit het westnoordwesten
Zicht: 4000 m
Verspreide wolken op 3000 ft
nevel
Tijdelijke
van 19 om 18 UTC tot 19 om 24 UTC
Zicht: 1200 m

TAF: ZYHB 190910Z 1912/2012 30003MPS 4000 BR SCT030 TX22/2006Z TN10/1921Z TEMPO 1918/1924 1200

Waarnemingen en weersverwachtingen van meer dan 4000 vliegvelden (METAR en TAF).

De beschikbare stations zijn de gele en rode punten op de kaart.

Ga met uw muis naar het station om de naam te zien.

Klik dan om waarnemingen en weersverwachtingen te zien.

kaart wijzigen: klik op de groene knoppen met een zwart kruis om in te zoomen, op de groene knop met een streepje om uit te zoomen of op de groene pijlen voor aangrenzende kaarten.


METAR-TAF: